sensor_id;sensor_type;location;lat;lon;timestamp;pressure;altitude;pressure_sealevel;temperature;humidity
46955;BME280;32708;51.212;6.788;2022-07-29T00:02:21;100924.31;;;20.89;83.38
46955;BME280;32708;51.212;6.788;2022-07-29T00:04:47;100915.94;;;20.82;83.91
46955;BME280;32708;51.212;6.788;2022-07-29T00:07:13;100908.34;;;20.75;84.48
46955;BME280;32708;51.212;6.788;2022-07-29T00:09:40;100914.41;;;20.92;83.03
46955;BME280;32708;51.212;6.788;2022-07-29T00:12:06;100906.81;;;20.85;83.98
46955;BME280;32708;51.212;6.788;2022-07-29T00:14:32;100904.38;;;20.76;84.39
46955;BME280;32708;51.212;6.788;2022-07-29T00:16:58;100896.91;;;20.80;84.28
46955;BME280;32708;51.212;6.788;2022-07-29T00:19:24;100900.69;;;20.61;85.91
46955;BME280;32708;51.212;6.788;2022-07-29T00:21:51;100905.91;;;20.67;85.73
46955;BME280;32708;51.212;6.788;2022-07-29T00:24:17;100893.22;;;20.69;85.42
46955;BME280;32708;51.212;6.788;2022-07-29T00:26:43;100886.16;;;20.75;85.81
46955;BME280;32708;51.212;6.788;2022-07-29T00:29:10;100885.00;;;20.80;85.53
46955;BME280;32708;51.212;6.788;2022-07-29T00:31:36;100881.28;;;20.61;86.19
46955;BME280;32708;51.212;6.788;2022-07-29T00:34:03;100875.34;;;20.63;86.55
46955;BME280;32708;51.212;6.788;2022-07-29T00:36:29;100872.56;;;20.63;86.86
46955;BME280;32708;51.212;6.788;2022-07-29T00:38:55;100867.72;;;20.53;87.80
46955;BME280;32708;51.212;6.788;2022-07-29T00:41:21;100865.28;;;20.44;88.59
46955;BME280;32708;51.212;6.788;2022-07-29T00:43:48;100861.78;;;20.51;89.13
46955;BME280;32708;51.212;6.788;2022-07-29T00:46:14;100856.66;;;20.56;88.07
46955;BME280;32708;51.212;6.788;2022-07-29T00:48:41;100848.03;;;20.65;87.72
46955;BME280;32708;51.212;6.788;2022-07-29T00:51:07;100847.91;;;20.51;88.83
46955;BME280;32708;51.212;6.788;2022-07-29T00:53:35;100850.34;;;20.59;88.67
46955;BME280;32708;51.212;6.788;2022-07-29T00:56:01;100843.00;;;20.37;89.76
46955;BME280;32708;51.212;6.788;2022-07-29T00:58:28;100843.22;;;20.62;88.99
46955;BME280;32708;51.212;6.788;2022-07-29T01:00:54;100840.78;;;20.53;88.76
46955;BME280;32708;51.212;6.788;2022-07-29T01:03:20;100849.50;;;20.52;89.13
46955;BME280;32708;51.212;6.788;2022-07-29T01:05:46;100844.34;;;20.50;89.92
46955;BME280;32708;51.212;6.788;2022-07-29T01:08:15;100830.81;;;20.45;89.44
46955;BME280;32708;51.212;6.788;2022-07-29T01:10:45;100832.06;;;20.51;89.10
46955;BME280;32708;51.212;6.788;2022-07-29T01:13:16;100820.97;;;20.55;88.61
46955;BME280;32708;51.212;6.788;2022-07-29T01:15:56;100821.78;;;20.52;89.15
46955;BME280;32708;51.212;6.788;2022-07-29T01:18:34;100819.34;;;20.47;89.34
46955;BME280;32708;51.212;6.788;2022-07-29T01:30:34;100828.50;;;20.54;89.49
46955;BME280;32708;51.212;6.788;2022-07-29T01:33:11;100824.84;;;20.43;89.70
46955;BME280;32708;51.212;6.788;2022-07-29T01:36:07;100824.47;;;20.45;89.89
46955;BME280;32708;51.212;6.788;2022-07-29T01:38:41;100826.47;;;20.44;90.11
46955;BME280;32708;51.212;6.788;2022-07-29T01:41:10;100828.50;;;20.54;90.57
46955;BME280;32708;51.212;6.788;2022-07-29T01:43:57;100837.63;;;20.51;90.74
46955;BME280;32708;51.212;6.788;2022-07-29T01:46:37;100832.13;;;20.58;90.87
46955;BME280;32708;51.212;6.788;2022-07-29T01:49:27;100834.44;;;20.53;90.86
46955;BME280;32708;51.212;6.788;2022-07-29T01:52:05;100824.59;;;20.59;91.31
46955;BME280;32708;51.212;6.788;2022-07-29T01:54:52;100828.84;;;20.49;92.35
46955;BME280;32708;51.212;6.788;2022-07-29T01:57:27;100829.56;;;20.43;92.93
46955;BME280;32708;51.212;6.788;2022-07-29T01:59:58;100819.06;;;20.63;92.16
46955;BME280;32708;51.212;6.788;2022-07-29T02:02:30;100819.88;;;20.67;92.19
46955;BME280;32708;51.212;6.788;2022-07-29T02:05:02;100822.25;;;20.65;91.58
46955;BME280;32708;51.212;6.788;2022-07-29T02:07:33;100813.25;;;20.34;94.18
46955;BME280;32708;51.212;6.788;2022-07-29T02:10:04;100820.44;;;20.42;93.50
46955;BME280;32708;51.212;6.788;2022-07-29T02:12:34;100815.38;;;20.44;92.83
46955;BME280;32708;51.212;6.788;2022-07-29T02:15:05;100818.53;;;20.46;92.97
46955;BME280;32708;51.212;6.788;2022-07-29T02:20:59;100834.78;;;20.44;93.26
46955;BME280;32708;51.212;6.788;2022-07-29T02:23:26;100835.56;;;20.45;93.28
46955;BME280;32708;51.212;6.788;2022-07-29T02:25:57;100841.03;;;20.38;93.77
46955;BME280;32708;51.212;6.788;2022-07-29T02:28:29;100849.31;;;20.34;95.81
46955;BME280;32708;51.212;6.788;2022-07-29T02:31:01;100853.94;;;20.19;97.24
46955;BME280;32708;51.212;6.788;2022-07-29T02:33:31;100856.94;;;20.03;99.28
46955;BME280;32708;51.212;6.788;2022-07-29T02:36:00;100847.75;;;19.96;99.63
46955;BME280;32708;51.212;6.788;2022-07-29T02:38:30;100840.94;;;19.86;100.00
46955;BME280;32708;51.212;6.788;2022-07-29T02:41:27;100838.53;;;19.85;100.00
46955;BME280;32708;51.212;6.788;2022-07-29T02:44:01;100843.41;;;19.95;100.00
46955;BME280;32708;51.212;6.788;2022-07-29T02:46:34;100845.88;;;19.70;100.00
46955;BME280;32708;51.212;6.788;2022-07-29T02:51:45;100838.28;;;19.63;100.00
46955;BME280;32708;51.212;6.788;2022-07-29T02:59:57;100846.28;;;19.68;100.00
46955;BME280;32708;51.212;6.788;2022-07-29T03:02:28;100860.59;;;19.74;100.00
46955;BME280;32708;51.212;6.788;2022-07-29T03:05:03;100861.25;;;19.64;100.00
46955;BME280;32708;51.212;6.788;2022-07-29T03:07:33;100864.88;;;19.71;100.00
46955;BME280;32708;51.212;6.788;2022-07-29T03:10:03;100856.41;;;19.57;100.00
46955;BME280;32708;51.212;6.788;2022-07-29T03:12:31;100875.66;;;19.46;100.00
46955;BME280;32708;51.212;6.788;2022-07-29T03:15:00;100881.38;;;19.31;100.00
46955;BME280;32708;51.212;6.788;2022-07-29T03:17:28;100888.69;;;19.46;100.00
46955;BME280;32708;51.212;6.788;2022-07-29T03:19:56;100907.91;;;19.35;100.00
46955;BME280;32708;51.212;6.788;2022-07-29T03:22:22;100925.56;;;19.23;100.00
46955;BME280;32708;51.212;6.788;2022-07-29T03:24:49;100949.16;;;15.29;100.00
46955;BME280;32708;51.212;6.788;2022-07-29T03:27:15;100941.91;;;14.64;100.00
46955;BME280;32708;51.212;6.788;2022-07-29T03:29:41;100946.94;;;14.62;100.00
46955;BME280;32708;51.212;6.788;2022-07-29T03:32:08;100943.78;;;14.72;100.00
46955;BME280;32708;51.212;6.788;2022-07-29T03:34:36;100956.03;;;14.86;100.00
46955;BME280;32708;51.212;6.788;2022-07-29T03:37:04;100962.00;;;15.01;100.00
46955;BME280;32708;51.212;6.788;2022-07-29T03:39:40;100957.06;;;15.06;100.00
46955;BME280;32708;51.212;6.788;2022-07-29T03:42:11;100954.53;;;15.13;100.00
46955;BME280;32708;51.212;6.788;2022-07-29T03:44:44;100938.75;;;15.10;100.00
46955;BME280;32708;51.212;6.788;2022-07-29T03:47:15;100924.63;;;15.36;100.00
46955;BME280;32708;51.212;6.788;2022-07-29T03:49:47;100924.63;;;15.36;100.00
46955;BME280;32708;51.212;6.788;2022-07-29T03:52:15;100931.38;;;15.27;100.00
46955;BME280;32708;51.212;6.788;2022-07-29T03:54:41;100928.16;;;15.37;100.00
46955;BME280;32708;51.212;6.788;2022-07-29T03:57:11;100932.16;;;15.39;100.00
46955;BME280;32708;51.212;6.788;2022-07-29T03:59:39;100921.09;;;15.24;100.00
46955;BME280;32708;51.212;6.788;2022-07-29T04:02:11;100915.47;;;14.83;100.00
46955;BME280;32708;51.212;6.788;2022-07-29T04:04:38;100912.16;;;14.66;100.00
46955;BME280;32708;51.212;6.788;2022-07-29T04:07:05;100905.75;;;14.74;100.00
46955;BME280;32708;51.212;6.788;2022-07-29T04:09:32;100898.63;;;14.85;100.00
46955;BME280;32708;51.212;6.788;2022-07-29T04:11:58;100894.06;;;14.89;100.00
46955;BME280;32708;51.212;6.788;2022-07-29T04:14:25;100876.41;;;14.90;100.00
46955;BME280;32708;51.212;6.788;2022-07-29T04:16:51;100888.88;;;15.00;100.00
46955;BME280;32708;51.212;6.788;2022-07-29T04:19:17;100909.50;;;15.06;100.00
46955;BME280;32708;51.212;6.788;2022-07-29T04:21:43;100917.44;;;15.07;100.00
46955;BME280;32708;51.212;6.788;2022-07-29T04:24:10;100923.63;;;15.17;100.00
46955;BME280;32708;51.212;6.788;2022-07-29T04:26:37;100914.56;;;15.16;100.00
46955;BME280;32708;51.212;6.788;2022-07-29T04:29:03;100898.72;;;15.13;100.00
46955;BME280;32708;51.212;6.788;2022-07-29T04:31:29;100909.28;;;15.11;100.00
46955;BME280;32708;51.212;6.788;2022-07-29T04:33:55;100905.47;;;15.28;100.00
46955;BME280;32708;51.212;6.788;2022-07-29T04:36:21;100908.41;;;15.59;100.00
46955;BME280;32708;51.212;6.788;2022-07-29T04:38:47;100909.47;;;15.83;100.00
46955;BME280;32708;51.212;6.788;2022-07-29T04:41:13;100910.13;;;15.92;100.00
46955;BME280;32708;51.212;6.788;2022-07-29T04:43:40;100899.31;;;15.99;100.00
46955;BME280;32708;51.212;6.788;2022-07-29T04:46:06;100901.53;;;15.65;100.00
46955;BME280;32708;51.212;6.788;2022-07-29T04:48:33;100913.75;;;15.16;100.00
46955;BME280;32708;51.212;6.788;2022-07-29T04:51:01;100916.03;;;15.26;100.00
46955;BME280;32708;51.212;6.788;2022-07-29T04:53:27;100909.22;;;15.48;100.00
46955;BME280;32708;51.212;6.788;2022-07-29T04:55:53;100903.38;;;15.61;100.00
46955;BME280;32708;51.212;6.788;2022-07-29T04:58:20;100888.78;;;15.73;100.00
46955;BME280;32708;51.212;6.788;2022-07-29T05:00:46;100879.06;;;15.51;100.00
46955;BME280;32708;51.212;6.788;2022-07-29T05:03:13;100881.34;;;15.61;100.00
46955;BME280;32708;51.212;6.788;2022-07-29T05:05:39;100883.19;;;15.57;100.00
46955;BME280;32708;51.212;6.788;2022-07-29T05:08:06;100896.72;;;15.62;100.00
46955;BME280;32708;51.212;6.788;2022-07-29T05:10:33;100905.19;;;15.57;100.00
46955;BME280;32708;51.212;6.788;2022-07-29T05:13:01;100902.41;;;15.69;100.00
46955;BME280;32708;51.212;6.788;2022-07-29T05:15:27;100888.50;;;15.78;100.00
46955;BME280;32708;51.212;6.788;2022-07-29T05:17:53;100884.53;;;15.91;100.00
46955;BME280;32708;51.212;6.788;2022-07-29T05:20:19;100886.50;;;15.91;100.00
46955;BME280;32708;51.212;6.788;2022-07-29T05:22:52;100902.47;;;15.85;100.00
46955;BME280;32708;51.212;6.788;2022-07-29T05:25:18;100909.53;;;15.99;100.00
46955;BME280;32708;51.212;6.788;2022-07-29T05:27:44;100912.84;;;16.04;100.00
46955;BME280;32708;51.212;6.788;2022-07-29T05:30:11;100911.44;;;16.10;100.00
46955;BME280;32708;51.212;6.788;2022-07-29T05:32:37;100911.81;;;16.24;100.00
46955;BME280;32708;51.212;6.788;2022-07-29T05:35:03;100907.47;;;16.39;100.00
46955;BME280;32708;51.212;6.788;2022-07-29T05:37:30;100906.25;;;16.37;100.00
46955;BME280;32708;51.212;6.788;2022-07-29T05:39:56;100900.28;;;16.50;100.00
46955;BME280;32708;51.212;6.788;2022-07-29T05:42:24;100911.53;;;16.73;100.00
46955;BME280;32708;51.212;6.788;2022-07-29T05:44:50;100906.44;;;16.75;100.00
46955;BME280;32708;51.212;6.788;2022-07-29T05:47:17;100912.47;;;16.97;100.00
46955;BME280;32708;51.212;6.788;2022-07-29T05:49:43;100921.47;;;17.10;100.00
46955;BME280;32708;51.212;6.788;2022-07-29T05:52:09;100918.16;;;17.04;100.00
46955;BME280;32708;51.212;6.788;2022-07-29T05:54:36;100917.09;;;16.93;100.00
46955;BME280;32708;51.212;6.788;2022-07-29T05:57:02;100924.97;;;17.26;100.00
46955;BME280;32708;51.212;6.788;2022-07-29T05:59:28;100911.59;;;17.28;100.00
46955;BME280;32708;51.212;6.788;2022-07-29T06:01:54;100917.94;;;17.28;100.00
46955;BME280;32708;51.212;6.788;2022-07-29T06:04:21;100921.72;;;17.40;100.00
46955;BME280;32708;51.212;6.788;2022-07-29T06:06:47;100932.50;;;17.45;100.00
46955;BME280;32708;51.212;6.788;2022-07-29T06:09:14;100930.41;;;17.57;100.00
46955;BME280;32708;51.212;6.788;2022-07-29T06:11:40;100943.59;;;17.83;100.00
46955;BME280;32708;51.212;6.788;2022-07-29T06:14:07;100939.09;;;17.95;100.00
46955;BME280;32708;51.212;6.788;2022-07-29T06:16:33;100923.56;;;17.86;100.00
46955;BME280;32708;51.212;6.788;2022-07-29T06:18:59;100935.09;;;17.92;100.00
46955;BME280;32708;51.212;6.788;2022-07-29T06:21:25;100939.03;;;17.91;100.00
46955;BME280;32708;51.212;6.788;2022-07-29T06:23:51;100946.00;;;18.04;100.00
46955;BME280;32708;51.212;6.788;2022-07-29T06:26:18;100952.41;;;18.08;100.00
46955;BME280;32708;51.212;6.788;2022-07-29T06:28:44;100952.03;;;18.10;100.00
46955;BME280;32708;51.212;6.788;2022-07-29T06:31:10;100952.22;;;18.21;100.00
46955;BME280;32708;51.212;6.788;2022-07-29T06:33:37;100960.75;;;18.12;100.00
46955;BME280;32708;51.212;6.788;2022-07-29T06:36:07;100967.72;;;18.25;100.00
46955;BME280;32708;51.212;6.788;2022-07-29T06:38:33;100975.91;;;18.41;100.00
46955;BME280;32708;51.212;6.788;2022-07-29T06:41:00;100971.31;;;18.49;100.00
46955;BME280;32708;51.212;6.788;2022-07-29T06:43:36;100980.03;;;18.70;100.00
46955;BME280;32708;51.212;6.788;2022-07-29T06:46:07;100983.25;;;18.53;100.00
46955;BME280;32708;51.212;6.788;2022-07-29T06:48:34;100983.31;;;18.76;100.00
46955;BME280;32708;51.212;6.788;2022-07-29T06:51:03;100986.06;;;18.76;100.00
46955;BME280;32708;51.212;6.788;2022-07-29T06:53:30;100983.25;;;18.72;100.00
46955;BME280;32708;51.212;6.788;2022-07-29T06:55:58;100988.78;;;18.72;100.00
46955;BME280;32708;51.212;6.788;2022-07-29T06:58:27;100977.91;;;18.83;100.00
46955;BME280;32708;51.212;6.788;2022-07-29T07:01:01;100974.06;;;18.91;100.00
46955;BME280;32708;51.212;6.788;2022-07-29T07:03:27;100976.03;;;18.90;100.00
46955;BME280;32708;51.212;6.788;2022-07-29T07:05:54;100974.25;;;18.79;100.00
46955;BME280;32708;51.212;6.788;2022-07-29T07:08:21;100979.47;;;19.07;100.00
46955;BME280;32708;51.212;6.788;2022-07-29T07:10:49;100983.78;;;19.04;100.00
46955;BME280;32708;51.212;6.788;2022-07-29T07:13:15;100989.53;;;19.18;100.00
46955;BME280;32708;51.212;6.788;2022-07-29T07:15:44;100987.53;;;19.15;100.00
46955;BME280;32708;51.212;6.788;2022-07-29T07:18:11;100984.31;;;19.36;100.00
46955;BME280;32708;51.212;6.788;2022-07-29T07:20:40;100980.34;;;19.37;100.00
46955;BME280;32708;51.212;6.788;2022-07-29T07:23:07;100982.69;;;19.35;100.00
46955;BME280;32708;51.212;6.788;2022-07-29T07:25:33;100988.19;;;19.32;100.00
46955;BME280;32708;51.212;6.788;2022-07-29T07:28:00;100992.72;;;19.20;100.00
46955;BME280;32708;51.212;6.788;2022-07-29T07:30:27;101004.50;;;18.68;100.00
46955;BME280;32708;51.212;6.788;2022-07-29T07:32:54;100999.97;;;18.79;100.00
46955;BME280;32708;51.212;6.788;2022-07-29T07:35:20;100992.91;;;18.62;100.00
46955;BME280;32708;51.212;6.788;2022-07-29T07:37:47;100995.72;;;18.85;100.00
46955;BME280;32708;51.212;6.788;2022-07-29T07:40:14;100998.19;;;18.90;100.00
46955;BME280;32708;51.212;6.788;2022-07-29T07:42:41;100989.56;;;18.95;100.00
46955;BME280;32708;51.212;6.788;2022-07-29T07:45:08;100971.34;;;19.17;100.00
46955;BME280;32708;51.212;6.788;2022-07-29T07:47:37;100975.75;;;18.95;100.00
46955;BME280;32708;51.212;6.788;2022-07-29T07:50:10;100974.16;;;18.94;100.00
46955;BME280;32708;51.212;6.788;2022-07-29T07:52:51;100967.84;;;18.97;100.00
46955;BME280;32708;51.212;6.788;2022-07-29T07:55:19;100980.34;;;18.65;100.00
46955;BME280;32708;51.212;6.788;2022-07-29T07:57:45;100965.09;;;18.97;100.00
46955;BME280;32708;51.212;6.788;2022-07-29T08:00:14;100972.47;;;18.90;100.00
46955;BME280;32708;51.212;6.788;2022-07-29T08:02:41;100979.75;;;18.75;100.00
46955;BME280;32708;51.212;6.788;2022-07-29T08:05:10;100966.16;;;18.89;100.00
46955;BME280;32708;51.212;6.788;2022-07-29T08:07:39;100974.28;;;18.59;100.00
46955;BME280;32708;51.212;6.788;2022-07-29T08:10:05;100990.56;;;18.64;100.00
46955;BME280;32708;51.212;6.788;2022-07-29T08:12:34;100978.94;;;18.55;100.00
46955;BME280;32708;51.212;6.788;2022-07-29T08:15:00;100977.91;;;18.63;100.00
46955;BME280;32708;51.212;6.788;2022-07-29T08:17:27;100977.75;;;18.33;100.00
46955;BME280;32708;51.212;6.788;2022-07-29T08:19:53;100976.91;;;18.10;100.00
46955;BME280;32708;51.212;6.788;2022-07-29T08:22:22;100971.09;;;18.15;100.00
46955;BME280;32708;51.212;6.788;2022-07-29T08:24:48;100981.41;;;17.99;100.00
46955;BME280;32708;51.212;6.788;2022-07-29T08:27:22;100986.78;;;18.11;100.00
46955;BME280;32708;51.212;6.788;2022-07-29T08:29:48;100994.44;;;18.18;100.00
46955;BME280;32708;51.212;6.788;2022-07-29T08:32:15;100990.25;;;18.27;100.00
46955;BME280;32708;51.212;6.788;2022-07-29T08:34:41;100990.06;;;18.17;100.00
46955;BME280;32708;51.212;6.788;2022-07-29T08:37:10;100995.44;;;18.09;100.00
46955;BME280;32708;51.212;6.788;2022-07-29T08:39:36;100997.06;;;18.10;100.00
46955;BME280;32708;51.212;6.788;2022-07-29T08:42:02;100995.56;;;18.36;100.00
46955;BME280;32708;51.212;6.788;2022-07-29T08:44:29;100991.81;;;18.25;100.00
46955;BME280;32708;51.212;6.788;2022-07-29T08:46:55;100984.31;;;18.25;100.00
46955;BME280;32708;51.212;6.788;2022-07-29T08:49:21;100972.56;;;18.09;100.00
46955;BME280;32708;51.212;6.788;2022-07-29T08:51:48;100976.75;;;18.22;100.00
46955;BME280;32708;51.212;6.788;2022-07-29T08:54:17;100974.75;;;18.42;100.00
46955;BME280;32708;51.212;6.788;2022-07-29T08:56:48;100963.41;;;18.47;100.00
46955;BME280;32708;51.212;6.788;2022-07-29T08:59:19;100975.69;;;18.50;100.00
46955;BME280;32708;51.212;6.788;2022-07-29T09:01:53;100977.72;;;18.72;100.00
46955;BME280;32708;51.212;6.788;2022-07-29T09:04:20;100978.81;;;18.90;100.00
46955;BME280;32708;51.212;6.788;2022-07-29T09:06:51;100968.28;;;18.77;100.00
46955;BME280;32708;51.212;6.788;2022-07-29T09:09:20;100975.19;;;18.86;100.00
46955;BME280;32708;51.212;6.788;2022-07-29T09:11:47;100967.84;;;18.97;100.00
46955;BME280;32708;51.212;6.788;2022-07-29T09:14:14;100977.03;;;19.02;100.00
46955;BME280;32708;51.212;6.788;2022-07-29T09:16:50;100976.50;;;19.45;100.00
46955;BME280;32708;51.212;6.788;2022-07-29T09:19:29;100986.16;;;19.82;100.00
46955;BME280;32708;51.212;6.788;2022-07-29T09:21:59;100987.94;;;19.67;100.00
46955;BME280;32708;51.212;6.788;2022-07-29T09:27:19;100990.19;;;19.35;100.00
46955;BME280;32708;51.212;6.788;2022-07-29T09:30:10;100979.75;;;19.77;100.00
46955;BME280;32708;51.212;6.788;2022-07-29T09:32:57;100991.28;;;19.79;100.00
46955;BME280;32708;51.212;6.788;2022-07-29T09:35:28;100994.06;;;19.83;100.00
46955;BME280;32708;51.212;6.788;2022-07-29T09:37:56;100971.16;;;20.20;100.00
46955;BME280;32708;51.212;6.788;2022-07-29T09:40:27;100976.97;;;20.08;100.00
46955;BME280;32708;51.212;6.788;2022-07-29T09:42:54;100982.31;;;20.23;100.00
46955;BME280;32708;51.212;6.788;2022-07-29T09:45:30;100980.09;;;20.06;100.00
46955;BME280;32708;51.212;6.788;2022-07-29T09:47:58;100972.81;;;20.24;100.00
46955;BME280;32708;51.212;6.788;2022-07-29T09:50:55;100987.13;;;19.96;100.00
46955;BME280;32708;51.212;6.788;2022-07-29T09:53:36;100979.50;;;19.86;100.00
46955;BME280;32708;51.212;6.788;2022-07-29T09:56:04;100983.47;;;19.59;100.00
46955;BME280;32708;51.212;6.788;2022-07-29T09:58:31;100976.69;;;20.16;100.00
46955;BME280;32708;51.212;6.788;2022-07-29T10:00:59;100975.13;;;20.19;100.00
46955;BME280;32708;51.212;6.788;2022-07-29T10:03:26;100974.72;;;20.50;100.00
46955;BME280;32708;51.212;6.788;2022-07-29T10:06:11;100979.63;;;20.68;100.00
46955;BME280;32708;51.212;6.788;2022-07-29T10:08:41;100978.63;;;20.90;100.00
46955;BME280;32708;51.212;6.788;2022-07-29T10:11:13;100983.72;;;20.81;100.00
46955;BME280;32708;51.212;6.788;2022-07-29T10:13:42;100979.81;;;20.89;100.00
46955;BME280;32708;51.212;6.788;2022-07-29T10:16:10;100980.47;;;20.72;100.00
46955;BME280;32708;51.212;6.788;2022-07-29T10:18:42;100978.63;;;20.90;100.00
46955;BME280;32708;51.212;6.788;2022-07-29T10:21:09;100979.50;;;20.98;100.00
46955;BME280;32708;51.212;6.788;2022-07-29T10:23:38;100976.91;;;20.75;100.00
46955;BME280;32708;51.212;6.788;2022-07-29T10:26:04;100985.25;;;20.75;100.00
46955;BME280;32708;51.212;6.788;2022-07-29T10:28:31;100988.16;;;20.89;100.00
46955;BME280;32708;51.212;6.788;2022-07-29T10:31:31;100998.47;;;20.92;100.00
46955;BME280;32708;51.212;6.788;2022-07-29T10:34:34;100994.88;;;20.88;100.00
46955;BME280;32708;51.212;6.788;2022-07-29T10:37:26;100988.84;;;21.27;100.00
46955;BME280;32708;51.212;6.788;2022-07-29T10:43:28;100982.78;;;21.65;100.00
46955;BME280;32708;51.212;6.788;2022-07-29T10:45:59;100990.06;;;21.95;100.00
46955;BME280;32708;51.212;6.788;2022-07-29T10:48:26;100980.41;;;21.71;100.00
46955;BME280;32708;51.212;6.788;2022-07-29T10:51:02;100984.25;;;21.45;100.00
46955;BME280;32708;51.212;6.788;2022-07-29T10:53:50;100972.94;;;21.82;100.00
46955;BME280;32708;51.212;6.788;2022-07-29T10:56:26;100978.56;;;22.07;100.00
46955;BME280;32708;51.212;6.788;2022-07-29T11:01:48;100976.53;;;21.90;100.00
46955;BME280;32708;51.212;6.788;2022-07-29T11:04:40;100969.63;;;22.67;100.00
46955;BME280;32708;51.212;6.788;2022-07-29T11:09:31;100972.84;;;23.19;100.00
46955;BME280;32708;51.212;6.788;2022-07-29T11:11:57;100968.47;;;23.22;100.00
46955;BME280;32708;51.212;6.788;2022-07-29T11:17:18;100948.91;;;23.61;100.00
46955;BME280;32708;51.212;6.788;2022-07-29T11:19:44;100944.41;;;23.88;99.57
46955;BME280;32708;51.212;6.788;2022-07-29T11:22:31;100944.91;;;23.66;96.65
46955;BME280;32708;51.212;6.788;2022-07-29T11:25:18;100940.19;;;24.32;90.88
46955;BME280;32708;51.212;6.788;2022-07-29T11:27:45;100946.25;;;24.20;85.67
46955;BME280;32708;51.212;6.788;2022-07-29T11:30:12;100943.09;;;24.14;81.60
46955;BME280;32708;51.212;6.788;2022-07-29T11:32:44;100938.53;;;23.72;85.79
46955;BME280;32708;51.212;6.788;2022-07-29T11:37:41;100924.66;;;24.28;79.08
46955;BME280;32708;51.212;6.788;2022-07-29T11:40:09;100917.09;;;25.66;68.39
46955;BME280;32708;51.212;6.788;2022-07-29T11:45:22;100919.53;;;26.22;60.98
46955;BME280;32708;51.212;6.788;2022-07-29T11:47:53;100920.94;;;26.37;61.03
46955;BME280;32708;51.212;6.788;2022-07-29T11:50:36;100932.16;;;26.37;61.31
46955;BME280;32708;51.212;6.788;2022-07-29T11:53:11;100935.38;;;25.71;64.39
46955;BME280;32708;51.212;6.788;2022-07-29T11:55:42;100931.13;;;27.01;61.54
46955;BME280;32708;51.212;6.788;2022-07-29T11:58:08;100934.59;;;27.32;62.02
46955;BME280;32708;51.212;6.788;2022-07-29T12:00:37;100922.88;;;27.37;61.49
46955;BME280;32708;51.212;6.788;2022-07-29T12:03:10;100928.59;;;27.74;60.30
46955;BME280;32708;51.212;6.788;2022-07-29T12:05:43;100949.69;;;26.92;65.59
46955;BME280;32708;51.212;6.788;2022-07-29T12:08:20;100935.91;;;27.04;67.54
46955;BME280;32708;51.212;6.788;2022-07-29T12:10:50;100952.69;;;27.28;70.03
46955;BME280;32708;51.212;6.788;2022-07-29T12:13:20;100951.97;;;27.24;71.98
46955;BME280;32708;51.212;6.788;2022-07-29T12:15:56;100952.75;;;26.50;72.52
46955;BME280;32708;51.212;6.788;2022-07-29T12:18:26;100954.84;;;26.16;75.82
46955;BME280;32708;51.212;6.788;2022-07-29T12:21:00;100954.09;;;25.43;81.40
46955;BME280;32708;51.212;6.788;2022-07-29T12:23:31;100951.75;;;25.76;82.40
46955;BME280;32708;51.212;6.788;2022-07-29T12:25:58;100953.72;;;25.79;81.92
46955;BME280;32708;51.212;6.788;2022-07-29T12:28:25;100951.66;;;25.45;82.56
46955;BME280;32708;51.212;6.788;2022-07-29T12:30:52;100958.72;;;25.19;86.75
46955;BME280;32708;51.212;6.788;2022-07-29T12:33:22;100953.63;;;25.07;88.49
46955;BME280;32708;51.212;6.788;2022-07-29T12:35:58;100954.50;;;26.41;76.74
46955;BME280;32708;51.212;6.788;2022-07-29T12:38:26;100952.06;;;27.40;70.62
46955;BME280;32708;51.212;6.788;2022-07-29T12:40:54;100951.81;;;26.84;71.73
46955;BME280;32708;51.212;6.788;2022-07-29T12:43:24;100953.97;;;26.49;73.46
46955;BME280;32708;51.212;6.788;2022-07-29T12:46:14;100958.19;;;25.69;76.45
46955;BME280;32708;51.212;6.788;2022-07-29T12:48:43;100953.19;;;25.50;80.17
46955;BME280;32708;51.212;6.788;2022-07-29T12:51:11;100960.22;;;25.99;78.53
46955;BME280;32708;51.212;6.788;2022-07-29T12:53:39;100958.66;;;26.56;77.06
46955;BME280;32708;51.212;6.788;2022-07-29T12:56:06;100945.19;;;27.21;72.67
46955;BME280;32708;51.212;6.788;2022-07-29T12:58:42;100949.22;;;26.73;73.52
46955;BME280;32708;51.212;6.788;2022-07-29T13:01:17;100945.59;;;27.43;68.27
46955;BME280;32708;51.212;6.788;2022-07-29T13:06:43;100939.16;;;26.99;66.55
46955;BME280;32708;51.212;6.788;2022-07-29T13:09:16;100940.22;;;27.52;66.82
46955;BME280;32708;51.212;6.788;2022-07-29T13:11:49;100937.41;;;27.52;64.10
46955;BME280;32708;51.212;6.788;2022-07-29T13:14:45;100924.41;;;28.18;58.19
46955;BME280;32708;51.212;6.788;2022-07-29T13:17:18;100926.91;;;27.96;57.54
46955;BME280;32708;51.212;6.788;2022-07-29T13:20:06;100927.06;;;27.89;58.85
46955;BME280;32708;51.212;6.788;2022-07-29T13:22:34;100940.06;;;27.59;59.33
46955;BME280;32708;51.212;6.788;2022-07-29T13:25:02;100939.28;;;26.92;61.02
46955;BME280;32708;51.212;6.788;2022-07-29T13:27:37;100942.81;;;27.20;60.58
46955;BME280;32708;51.212;6.788;2022-07-29T13:30:09;100940.81;;;27.20;60.86
46955;BME280;32708;51.212;6.788;2022-07-29T13:32:36;100941.72;;;27.13;59.40
46955;BME280;32708;51.212;6.788;2022-07-29T13:35:06;100931.00;;;27.32;59.92
46955;BME280;32708;51.212;6.788;2022-07-29T13:37:35;100926.31;;;27.02;59.66
46955;BME280;32708;51.212;6.788;2022-07-29T13:40:06;100928.69;;;27.03;61.24
46955;BME280;32708;51.212;6.788;2022-07-29T13:42:33;100937.38;;;26.62;62.94